sensor_id;sensor_type;location;lat;lon;timestamp;temperature;humidity
5576;DHT22;2810;50.134;8.626;2023-04-19T00:01:46;11.00;99.90
5576;DHT22;2810;50.134;8.626;2023-04-19T00:04:12;11.00;99.90
5576;DHT22;2810;50.134;8.626;2023-04-19T00:06:39;11.00;99.90
5576;DHT22;2810;50.134;8.626;2023-04-19T00:09:05;11.00;99.90
5576;DHT22;2810;50.134;8.626;2023-04-19T00:11:31;10.90;99.90
5576;DHT22;2810;50.134;8.626;2023-04-19T00:13:56;10.90;99.90
5576;DHT22;2810;50.134;8.626;2023-04-19T00:16:22;10.90;99.90
5576;DHT22;2810;50.134;8.626;2023-04-19T00:18:47;10.90;99.90
5576;DHT22;2810;50.134;8.626;2023-04-19T00:21:13;10.90;99.90
5576;DHT22;2810;50.134;8.626;2023-04-19T00:23:38;10.90;99.90
5576;DHT22;2810;50.134;8.626;2023-04-19T00:26:03;10.90;99.90
5576;DHT22;2810;50.134;8.626;2023-04-19T00:28:29;10.90;99.90
5576;DHT22;2810;50.134;8.626;2023-04-19T00:30:55;10.90;99.90
5576;DHT22;2810;50.134;8.626;2023-04-19T00:33:20;10.90;99.90
5576;DHT22;2810;50.134;8.626;2023-04-19T00:35:46;10.90;99.90
5576;DHT22;2810;50.134;8.626;2023-04-19T00:38:11;10.90;99.90
5576;DHT22;2810;50.134;8.626;2023-04-19T00:40:37;10.90;99.90
5576;DHT22;2810;50.134;8.626;2023-04-19T00:43:02;10.90;99.90
5576;DHT22;2810;50.134;8.626;2023-04-19T00:45:28;10.90;99.90
5576;DHT22;2810;50.134;8.626;2023-04-19T00:47:54;10.90;99.90
5576;DHT22;2810;50.134;8.626;2023-04-19T00:50:20;10.90;99.90
5576;DHT22;2810;50.134;8.626;2023-04-19T00:52:45;10.90;99.90
5576;DHT22;2810;50.134;8.626;2023-04-19T00:55:11;10.90;99.90
5576;DHT22;2810;50.134;8.626;2023-04-19T00:57:37;10.90;99.90
5576;DHT22;2810;50.134;8.626;2023-04-19T01:00:03;10.90;99.90
5576;DHT22;2810;50.134;8.626;2023-04-19T01:02:34;10.90;99.90
5576;DHT22;2810;50.134;8.626;2023-04-19T01:04:59;10.80;99.90
5576;DHT22;2810;50.134;8.626;2023-04-19T01:07:25;10.80;99.90
5576;DHT22;2810;50.134;8.626;2023-04-19T01:09:50;10.80;99.90
5576;DHT22;2810;50.134;8.626;2023-04-19T01:12:16;10.80;99.90
5576;DHT22;2810;50.134;8.626;2023-04-19T01:14:41;10.80;99.90
5576;DHT22;2810;50.134;8.626;2023-04-19T01:17:08;10.80;99.90
5576;DHT22;2810;50.134;8.626;2023-04-19T01:19:34;10.70;99.90
5576;DHT22;2810;50.134;8.626;2023-04-19T01:22:00;10.70;99.90
5576;DHT22;2810;50.134;8.626;2023-04-19T01:24:27;10.70;99.90
5576;DHT22;2810;50.134;8.626;2023-04-19T01:26:52;10.70;99.90
5576;DHT22;2810;50.134;8.626;2023-04-19T01:29:18;10.60;99.90
5576;DHT22;2810;50.134;8.626;2023-04-19T01:31:45;10.60;99.90
5576;DHT22;2810;50.134;8.626;2023-04-19T01:34:15;10.70;99.90
5576;DHT22;2810;50.134;8.626;2023-04-19T01:36:41;10.70;99.90
5576;DHT22;2810;50.134;8.626;2023-04-19T01:39:06;10.70;99.90
5576;DHT22;2810;50.134;8.626;2023-04-19T01:41:32;10.70;99.90
5576;DHT22;2810;50.134;8.626;2023-04-19T01:43:57;10.70;99.90
5576;DHT22;2810;50.134;8.626;2023-04-19T01:46:22;10.60;99.90
5576;DHT22;2810;50.134;8.626;2023-04-19T01:48:48;10.60;99.90
5576;DHT22;2810;50.134;8.626;2023-04-19T01:51:13;10.60;99.90
5576;DHT22;2810;50.134;8.626;2023-04-19T01:53:41;10.70;99.90
5576;DHT22;2810;50.134;8.626;2023-04-19T01:56:06;10.60;99.90
5576;DHT22;2810;50.134;8.626;2023-04-19T01:58:32;10.60;99.90
5576;DHT22;2810;50.134;8.626;2023-04-19T02:00:57;10.60;99.90
5576;DHT22;2810;50.134;8.626;2023-04-19T02:03:23;10.60;99.90
5576;DHT22;2810;50.134;8.626;2023-04-19T02:05:48;10.60;99.90
5576;DHT22;2810;50.134;8.626;2023-04-19T02:08:14;10.50;99.90
5576;DHT22;2810;50.134;8.626;2023-04-19T02:10:39;10.60;99.90
5576;DHT22;2810;50.134;8.626;2023-04-19T02:13:05;10.50;99.90
5576;DHT22;2810;50.134;8.626;2023-04-19T02:15:30;10.50;99.90
5576;DHT22;2810;50.134;8.626;2023-04-19T02:17:56;10.50;99.90
5576;DHT22;2810;50.134;8.626;2023-04-19T02:20:21;10.50;99.90
5576;DHT22;2810;50.134;8.626;2023-04-19T02:22:48;10.90;99.90
5576;DHT22;2810;50.134;8.626;2023-04-19T02:25:13;10.40;99.90
5576;DHT22;2810;50.134;8.626;2023-04-19T02:27:40;10.50;99.90
5576;DHT22;2810;50.134;8.626;2023-04-19T02:30:06;10.40;99.90
5576;DHT22;2810;50.134;8.626;2023-04-19T02:32:32;10.40;99.90
5576;DHT22;2810;50.134;8.626;2023-04-19T02:34:57;10.40;99.90
5576;DHT22;2810;50.134;8.626;2023-04-19T02:37:23;10.40;99.90
5576;DHT22;2810;50.134;8.626;2023-04-19T02:39:48;10.40;99.90
5576;DHT22;2810;50.134;8.626;2023-04-19T02:42:14;10.70;99.90
5576;DHT22;2810;50.134;8.626;2023-04-19T02:44:39;10.30;99.90
5576;DHT22;2810;50.134;8.626;2023-04-19T02:47:05;10.30;99.90
5576;DHT22;2810;50.134;8.626;2023-04-19T02:49:30;10.30;99.90
5576;DHT22;2810;50.134;8.626;2023-04-19T02:52:01;10.20;99.90
5576;DHT22;2810;50.134;8.626;2023-04-19T02:54:26;10.20;99.90
5576;DHT22;2810;50.134;8.626;2023-04-19T02:56:52;10.20;99.90
5576;DHT22;2810;50.134;8.626;2023-04-19T02:59:17;10.20;99.90
5576;DHT22;2810;50.134;8.626;2023-04-19T03:01:42;10.10;99.90
5576;DHT22;2810;50.134;8.626;2023-04-19T03:04:08;10.10;99.90
5576;DHT22;2810;50.134;8.626;2023-04-19T03:06:33;10.00;99.90
5576;DHT22;2810;50.134;8.626;2023-04-19T03:08:59;10.00;99.90
5576;DHT22;2810;50.134;8.626;2023-04-19T03:11:24;9.90;99.90
5576;DHT22;2810;50.134;8.626;2023-04-19T03:13:49;9.90;99.90
5576;DHT22;2810;50.134;8.626;2023-04-19T03:16:15;9.90;99.90
5576;DHT22;2810;50.134;8.626;2023-04-19T03:18:40;9.90;99.90
5576;DHT22;2810;50.134;8.626;2023-04-19T03:21:06;9.80;99.90
5576;DHT22;2810;50.134;8.626;2023-04-19T03:23:33;9.80;99.90
5576;DHT22;2810;50.134;8.626;2023-04-19T03:25:59;9.90;99.90
5576;DHT22;2810;50.134;8.626;2023-04-19T03:28:24;9.80;99.90
5576;DHT22;2810;50.134;8.626;2023-04-19T03:30:50;9.90;99.90
5576;DHT22;2810;50.134;8.626;2023-04-19T03:33:15;10.00;99.90
5576;DHT22;2810;50.134;8.626;2023-04-19T03:35:42;10.00;99.90
5576;DHT22;2810;50.134;8.626;2023-04-19T03:38:07;10.40;99.90
5576;DHT22;2810;50.134;8.626;2023-04-19T03:40:33;10.00;99.90
5576;DHT22;2810;50.134;8.626;2023-04-19T03:42:58;10.10;99.90
5576;DHT22;2810;50.134;8.626;2023-04-19T03:45:24;10.10;99.90
5576;DHT22;2810;50.134;8.626;2023-04-19T03:47:49;10.20;99.90
5576;DHT22;2810;50.134;8.626;2023-04-19T03:50:15;10.20;99.90
5576;DHT22;2810;50.134;8.626;2023-04-19T03:52:40;10.20;99.90
5576;DHT22;2810;50.134;8.626;2023-04-19T03:55:06;10.20;99.90
5576;DHT22;2810;50.134;8.626;2023-04-19T03:57:31;10.20;99.90
5576;DHT22;2810;50.134;8.626;2023-04-19T03:59:57;10.20;99.90
5576;DHT22;2810;50.134;8.626;2023-04-19T04:02:22;10.30;99.90
5576;DHT22;2810;50.134;8.626;2023-04-19T04:04:54;10.30;99.90
5576;DHT22;2810;50.134;8.626;2023-04-19T04:07:19;10.30;99.90
5576;DHT22;2810;50.134;8.626;2023-04-19T04:09:46;10.30;99.90
5576;DHT22;2810;50.134;8.626;2023-04-19T04:12:12;10.30;99.90
5576;DHT22;2810;50.134;8.626;2023-04-19T04:14:37;10.30;99.90
5576;DHT22;2810;50.134;8.626;2023-04-19T04:17:03;10.30;99.90
5576;DHT22;2810;50.134;8.626;2023-04-19T04:19:28;10.40;99.90
5576;DHT22;2810;50.134;8.626;2023-04-19T04:21:53;10.40;99.90
5576;DHT22;2810;50.134;8.626;2023-04-19T04:24:19;10.70;99.90
5576;DHT22;2810;50.134;8.626;2023-04-19T04:26:46;10.40;99.90
5576;DHT22;2810;50.134;8.626;2023-04-19T04:29:14;10.40;99.90
5576;DHT22;2810;50.134;8.626;2023-04-19T04:31:39;10.40;99.90
5576;DHT22;2810;50.134;8.626;2023-04-19T04:34:05;10.40;99.90
5576;DHT22;2810;50.134;8.626;2023-04-19T04:36:33;10.40;99.90
5576;DHT22;2810;50.134;8.626;2023-04-19T04:38:59;10.40;99.90
5576;DHT22;2810;50.134;8.626;2023-04-19T04:41:26;10.40;99.90
5576;DHT22;2810;50.134;8.626;2023-04-19T04:43:52;10.40;99.90
5576;DHT22;2810;50.134;8.626;2023-04-19T04:46:17;9.70;99.90
5576;DHT22;2810;50.134;8.626;2023-04-19T04:48:43;10.40;99.90
5576;DHT22;2810;50.134;8.626;2023-04-19T04:51:08;10.50;99.90
5576;DHT22;2810;50.134;8.626;2023-04-19T04:53:34;10.50;99.90
5576;DHT22;2810;50.134;8.626;2023-04-19T04:55:59;10.40;99.90
5576;DHT22;2810;50.134;8.626;2023-04-19T04:58:25;10.40;99.90
5576;DHT22;2810;50.134;8.626;2023-04-19T05:00:50;10.90;99.90
5576;DHT22;2810;50.134;8.626;2023-04-19T05:03:15;10.80;99.90
5576;DHT22;2810;50.134;8.626;2023-04-19T05:05:41;10.50;99.90
5576;DHT22;2810;50.134;8.626;2023-04-19T05:08:07;10.60;99.90
5576;DHT22;2810;50.134;8.626;2023-04-19T05:10:32;10.50;99.90
5576;DHT22;2810;50.134;8.626;2023-04-19T05:12:58;11.10;99.90
5576;DHT22;2810;50.134;8.626;2023-04-19T05:15:23;10.90;99.90
5576;DHT22;2810;50.134;8.626;2023-04-19T05:17:48;10.50;99.90
5576;DHT22;2810;50.134;8.626;2023-04-19T05:20:14;10.60;99.90
5576;DHT22;2810;50.134;8.626;2023-04-19T05:22:40;10.50;99.90
5576;DHT22;2810;50.134;8.626;2023-04-19T05:25:05;10.60;99.90
5576;DHT22;2810;50.134;8.626;2023-04-19T05:27:31;10.60;99.90
5576;DHT22;2810;50.134;8.626;2023-04-19T05:29:56;10.60;99.90
5576;DHT22;2810;50.134;8.626;2023-04-19T05:32:22;10.70;99.90
5576;DHT22;2810;50.134;8.626;2023-04-19T05:34:47;10.70;99.90
5576;DHT22;2810;50.134;8.626;2023-04-19T05:37:13;10.70;99.90
5576;DHT22;2810;50.134;8.626;2023-04-19T05:39:38;10.70;99.90
5576;DHT22;2810;50.134;8.626;2023-04-19T05:42:03;10.80;99.90
5576;DHT22;2810;50.134;8.626;2023-04-19T05:44:29;10.80;99.90
5576;DHT22;2810;50.134;8.626;2023-04-19T05:46:54;10.80;99.90
5576;DHT22;2810;50.134;8.626;2023-04-19T05:49:20;10.90;99.90
5576;DHT22;2810;50.134;8.626;2023-04-19T05:51:45;11.40;99.90
5576;DHT22;2810;50.134;8.626;2023-04-19T05:54:11;11.00;99.90
5576;DHT22;2810;50.134;8.626;2023-04-19T05:56:38;11.00;99.90
5576;DHT22;2810;50.134;8.626;2023-04-19T05:59:03;11.10;99.90
5576;DHT22;2810;50.134;8.626;2023-04-19T06:01:29;11.10;99.90
5576;DHT22;2810;50.134;8.626;2023-04-19T06:03:55;11.20;99.90
5576;DHT22;2810;50.134;8.626;2023-04-19T06:06:20;11.30;99.90
5576;DHT22;2810;50.134;8.626;2023-04-19T06:08:46;11.30;99.90
5576;DHT22;2810;50.134;8.626;2023-04-19T06:11:12;11.30;99.90
5576;DHT22;2810;50.134;8.626;2023-04-19T06:13:37;11.40;99.90
5576;DHT22;2810;50.134;8.626;2023-04-19T06:16:02;11.40;99.90
5576;DHT22;2810;50.134;8.626;2023-04-19T06:18:28;11.50;99.90
5576;DHT22;2810;50.134;8.626;2023-04-19T06:20:54;11.60;99.90
5576;DHT22;2810;50.134;8.626;2023-04-19T06:23:19;11.50;99.90
5576;DHT22;2810;50.134;8.626;2023-04-19T06:25:45;11.50;99.90
5576;DHT22;2810;50.134;8.626;2023-04-19T06:28:13;11.50;99.90
5576;DHT22;2810;50.134;8.626;2023-04-19T06:30:38;11.60;99.90
5576;DHT22;2810;50.134;8.626;2023-04-19T06:33:04;11.90;99.90
5576;DHT22;2810;50.134;8.626;2023-04-19T06:35:30;11.50;99.90
5576;DHT22;2810;50.134;8.626;2023-04-19T06:37:55;11.40;99.90
5576;DHT22;2810;50.134;8.626;2023-04-19T06:40:20;11.40;99.90
5576;DHT22;2810;50.134;8.626;2023-04-19T06:42:46;11.20;99.90
5576;DHT22;2810;50.134;8.626;2023-04-19T06:45:11;11.30;99.90
5576;DHT22;2810;50.134;8.626;2023-04-19T06:47:37;11.40;99.90
5576;DHT22;2810;50.134;8.626;2023-04-19T06:50:02;11.40;99.90
5576;DHT22;2810;50.134;8.626;2023-04-19T06:52:28;11.30;99.90
5576;DHT22;2810;50.134;8.626;2023-04-19T06:54:53;11.30;99.90
5576;DHT22;2810;50.134;8.626;2023-04-19T06:57:19;11.30;99.90
5576;DHT22;2810;50.134;8.626;2023-04-19T06:59:44;11.20;99.90
5576;DHT22;2810;50.134;8.626;2023-04-19T07:02:10;11.30;99.90
5576;DHT22;2810;50.134;8.626;2023-04-19T07:04:35;11.20;99.90
5576;DHT22;2810;50.134;8.626;2023-04-19T07:07:01;11.50;99.90
5576;DHT22;2810;50.134;8.626;2023-04-19T07:09:27;11.30;99.90
5576;DHT22;2810;50.134;8.626;2023-04-19T07:11:52;11.30;99.90
5576;DHT22;2810;50.134;8.626;2023-04-19T07:14:18;11.30;99.90
5576;DHT22;2810;50.134;8.626;2023-04-19T07:16:47;11.30;99.90
5576;DHT22;2810;50.134;8.626;2023-04-19T07:19:12;11.30;99.90
5576;DHT22;2810;50.134;8.626;2023-04-19T07:21:38;11.40;99.90
5576;DHT22;2810;50.134;8.626;2023-04-19T07:24:04;11.40;99.90
5576;DHT22;2810;50.134;8.626;2023-04-19T07:26:30;11.60;99.90
5576;DHT22;2810;50.134;8.626;2023-04-19T07:28:55;11.60;99.90
5576;DHT22;2810;50.134;8.626;2023-04-19T07:31:21;11.70;99.90
5576;DHT22;2810;50.134;8.626;2023-04-19T07:33:49;11.80;99.90
5576;DHT22;2810;50.134;8.626;2023-04-19T07:36:14;11.80;99.90
5576;DHT22;2810;50.134;8.626;2023-04-19T07:38:40;12.00;99.90
5576;DHT22;2810;50.134;8.626;2023-04-19T07:41:05;12.00;99.90
5576;DHT22;2810;50.134;8.626;2023-04-19T07:43:31;12.10;99.90
5576;DHT22;2810;50.134;8.626;2023-04-19T07:45:56;12.10;99.90
5576;DHT22;2810;50.134;8.626;2023-04-19T07:48:22;12.70;99.90
5576;DHT22;2810;50.134;8.626;2023-04-19T07:50:47;12.40;99.90
5576;DHT22;2810;50.134;8.626;2023-04-19T07:53:13;13.40;99.90
5576;DHT22;2810;50.134;8.626;2023-04-19T07:55:38;14.00;99.90
5576;DHT22;2810;50.134;8.626;2023-04-19T07:58:03;14.10;99.90
5576;DHT22;2810;50.134;8.626;2023-04-19T08:00:29;13.90;99.90
5576;DHT22;2810;50.134;8.626;2023-04-19T08:02:55;13.80;99.90
5576;DHT22;2810;50.134;8.626;2023-04-19T08:05:21;13.80;99.90
5576;DHT22;2810;50.134;8.626;2023-04-19T08:07:47;14.00;99.90
5576;DHT22;2810;50.134;8.626;2023-04-19T08:10:12;14.40;99.90
5576;DHT22;2810;50.134;8.626;2023-04-19T08:12:38;15.00;99.90
5576;DHT22;2810;50.134;8.626;2023-04-19T08:15:05;15.30;99.90
5576;DHT22;2810;50.134;8.626;2023-04-19T08:17:31;15.60;99.90
5576;DHT22;2810;50.134;8.626;2023-04-19T08:19:56;15.90;99.90
5576;DHT22;2810;50.134;8.626;2023-04-19T08:22:22;16.30;99.90
5576;DHT22;2810;50.134;8.626;2023-04-19T08:24:48;16.60;99.90
5576;DHT22;2810;50.134;8.626;2023-04-19T08:27:13;17.50;99.90
5576;DHT22;2810;50.134;8.626;2023-04-19T08:29:39;17.20;99.90
5576;DHT22;2810;50.134;8.626;2023-04-19T08:32:05;17.30;99.90
5576;DHT22;2810;50.134;8.626;2023-04-19T08:34:30;16.90;99.90
5576;DHT22;2810;50.134;8.626;2023-04-19T08:36:56;16.80;99.90
5576;DHT22;2810;50.134;8.626;2023-04-19T08:39:21;17.10;99.90
5576;DHT22;2810;50.134;8.626;2023-04-19T08:41:47;17.50;99.90
5576;DHT22;2810;50.134;8.626;2023-04-19T08:44:13;17.90;99.90
5576;DHT22;2810;50.134;8.626;2023-04-19T08:46:40;18.00;99.90
5576;DHT22;2810;50.134;8.626;2023-04-19T08:49:06;17.70;99.90
5576;DHT22;2810;50.134;8.626;2023-04-19T08:51:32;18.00;99.90
5576;DHT22;2810;50.134;8.626;2023-04-19T08:53:58;18.10;99.90
5576;DHT22;2810;50.134;8.626;2023-04-19T08:56:25;18.60;99.80
5576;DHT22;2810;50.134;8.626;2023-04-19T08:58:50;18.60;99.00
5576;DHT22;2810;50.134;8.626;2023-04-19T09:01:16;18.70;98.10
5576;DHT22;2810;50.134;8.626;2023-04-19T09:03:44;18.00;99.10
5576;DHT22;2810;50.134;8.626;2023-04-19T09:06:10;17.70;98.90
5576;DHT22;2810;50.134;8.626;2023-04-19T09:08:36;17.90;98.90
5576;DHT22;2810;50.134;8.626;2023-04-19T09:11:02;18.30;97.90
5576;DHT22;2810;50.134;8.626;2023-04-19T09:13:28;18.80;97.00
5576;DHT22;2810;50.134;8.626;2023-04-19T09:15:54;19.00;96.20
5576;DHT22;2810;50.134;8.626;2023-04-19T09:18:21;19.10;96.20
5576;DHT22;2810;50.134;8.626;2023-04-19T09:20:47;19.40;96.60
5576;DHT22;2810;50.134;8.626;2023-04-19T09:23:14;20.00;95.30
5576;DHT22;2810;50.134;8.626;2023-04-19T09:25:50;19.40;94.60
5576;DHT22;2810;50.134;8.626;2023-04-19T09:28:16;19.00;95.20
5576;DHT22;2810;50.134;8.626;2023-04-19T09:30:41;19.20;94.20
5576;DHT22;2810;50.134;8.626;2023-04-19T09:33:07;18.90;94.40
5576;DHT22;2810;50.134;8.626;2023-04-19T09:35:42;19.00;95.90
5576;DHT22;2810;50.134;8.626;2023-04-19T09:38:09;18.90;95.60
5576;DHT22;2810;50.134;8.626;2023-04-19T09:40:35;19.40;93.20
5576;DHT22;2810;50.134;8.626;2023-04-19T09:43:01;19.40;92.80
5576;DHT22;2810;50.134;8.626;2023-04-19T09:45:26;19.40;93.10
5576;DHT22;2810;50.134;8.626;2023-04-19T09:47:59;19.80;91.20
5576;DHT22;2810;50.134;8.626;2023-04-19T09:50:25;19.90;91.90
5576;DHT22;2810;50.134;8.626;2023-04-19T09:52:51;20.00;91.20
5576;DHT22;2810;50.134;8.626;2023-04-19T09:55:16;20.50;90.60
5576;DHT22;2810;50.134;8.626;2023-04-19T09:57:43;20.10;90.00
5576;DHT22;2810;50.134;8.626;2023-04-19T10:00:08;20.10;90.30
5576;DHT22;2810;50.134;8.626;2023-04-19T10:02:37;20.20;90.40
5576;DHT22;2810;50.134;8.626;2023-04-19T10:05:05;20.20;87.30
5576;DHT22;2810;50.134;8.626;2023-04-19T10:07:32;20.10;86.60
5576;DHT22;2810;50.134;8.626;2023-04-19T10:09:58;20.00;88.10
5576;DHT22;2810;50.134;8.626;2023-04-19T10:12:24;18.90;90.60
5576;DHT22;2810;50.134;8.626;2023-04-19T10:14:51;18.10;90.70
5576;DHT22;2810;50.134;8.626;2023-04-19T10:17:18;17.70;91.30
5576;DHT22;2810;50.134;8.626;2023-04-19T10:19:44;18.40;92.30
5576;DHT22;2810;50.134;8.626;2023-04-19T10:22:09;19.40;87.20
5576;DHT22;2810;50.134;8.626;2023-04-19T10:24:36;19.50;85.30
5576;DHT22;2810;50.134;8.626;2023-04-19T10:32:14;19.80;83.50
5576;DHT22;2810;50.134;8.626;2023-04-19T10:34:39;19.40;83.90
5576;DHT22;2810;50.134;8.626;2023-04-19T10:37:08;18.60;86.30
5576;DHT22;2810;50.134;8.626;2023-04-19T10:39:38;17.90;88.60
5576;DHT22;2810;50.134;8.626;2023-04-19T10:42:04;18.10;86.60
5576;DHT22;2810;50.134;8.626;2023-04-19T10:44:30;18.60;85.80
5576;DHT22;2810;50.134;8.626;2023-04-19T10:46:55;19.10;84.80
5576;DHT22;2810;50.134;8.626;2023-04-19T10:49:22;19.00;82.60
5576;DHT22;2810;50.134;8.626;2023-04-19T10:51:51;18.40;82.50
5576;DHT22;2810;50.134;8.626;2023-04-19T10:57:04;18.30;82.60
5576;DHT22;2810;50.134;8.626;2023-04-19T10:59:33;18.40;81.40
5576;DHT22;2810;50.134;8.626;2023-04-19T11:02:00;18.50;82.40
5576;DHT22;2810;50.134;8.626;2023-04-19T11:09:24;19.20;80.00
5576;DHT22;2810;50.134;8.626;2023-04-19T11:11:50;19.40;76.00
5576;DHT22;2810;50.134;8.626;2023-04-19T11:14:15;19.60;76.90
5576;DHT22;2810;50.134;8.626;2023-04-19T11:16:41;19.50;76.90
5576;DHT22;2810;50.134;8.626;2023-04-19T11:19:07;19.80;77.50
5576;DHT22;2810;50.134;8.626;2023-04-19T11:21:32;19.70;74.10
5576;DHT22;2810;50.134;8.626;2023-04-19T11:24:10;19.60;75.10
5576;DHT22;2810;50.134;8.626;2023-04-19T11:26:36;19.00;74.60
5576;DHT22;2810;50.134;8.626;2023-04-19T11:29:01;18.10;74.70
5576;DHT22;2810;50.134;8.626;2023-04-19T11:31:27;18.20;76.40
5576;DHT22;2810;50.134;8.626;2023-04-19T11:33:52;19.10;73.50
5576;DHT22;2810;50.134;8.626;2023-04-19T11:36:18;19.10;70.10
5576;DHT22;2810;50.134;8.626;2023-04-19T11:38:50;19.20;67.80
5576;DHT22;2810;50.134;8.626;2023-04-19T11:41:16;19.00;68.10
5576;DHT22;2810;50.134;8.626;2023-04-19T11:43:42;19.20;65.10
5576;DHT22;2810;50.134;8.626;2023-04-19T11:46:10;19.60;65.90
5576;DHT22;2810;50.134;8.626;2023-04-19T11:48:36;20.00;60.50
5576;DHT22;2810;50.134;8.626;2023-04-19T11:51:01;18.80;62.30
5576;DHT22;2810;50.134;8.626;2023-04-19T11:53:29;18.90;62.30
5576;DHT22;2810;50.134;8.626;2023-04-19T11:56:04;19.40;60.00
5576;DHT22;2810;50.134;8.626;2023-04-19T11:58:37;19.40;60.00
5576;DHT22;2810;50.134;8.626;2023-04-19T12:03:32;20.20;57.40
5576;DHT22;2810;50.134;8.626;2023-04-19T12:05:59;20.40;57.10
5576;DHT22;2810;50.134;8.626;2023-04-19T12:08:34;20.30;57.30
5576;DHT22;2810;50.134;8.626;2023-04-19T12:11:00;20.00;56.60
5576;DHT22;2810;50.134;8.626;2023-04-19T12:13:27;20.20;57.30
5576;DHT22;2810;50.134;8.626;2023-04-19T12:15:53;20.30;54.70
5576;DHT22;2810;50.134;8.626;2023-04-19T12:18:19;20.40;55.00
5576;DHT22;2810;50.134;8.626;2023-04-19T12:20:45;20.10;52.50
5576;DHT22;2810;50.134;8.626;2023-04-19T12:23:11;20.10;53.50
5576;DHT22;2810;50.134;8.626;2023-04-19T12:25:38;20.30;53.00
5576;DHT22;2810;50.134;8.626;2023-04-19T12:28:04;20.50;52.90
5576;DHT22;2810;50.134;8.626;2023-04-19T12:30:29;20.40;51.20
5576;DHT22;2810;50.134;8.626;2023-04-19T12:32:55;20.50;52.10
5576;DHT22;2810;50.134;8.626;2023-04-19T12:35:21;19.60;51.60
5576;DHT22;2810;50.134;8.626;2023-04-19T12:37:47;19.30;52.90
5576;DHT22;2810;50.134;8.626;2023-04-19T12:40:13;19.30;52.00
5576;DHT22;2810;50.134;8.626;2023-04-19T12:42:38;19.20;50.00
5576;DHT22;2810;50.134;8.626;2023-04-19T12:45:04;18.90;51.10
5576;DHT22;2810;50.134;8.626;2023-04-19T12:47:30;19.00;52.30
5576;DHT22;2810;50.134;8.626;2023-04-19T12:49:55;18.90;51.60
5576;DHT22;2810;50.134;8.626;2023-04-19T12:52:22;19.20;53.10
5576;DHT22;2810;50.134;8.626;2023-04-19T12:54:47;19.30;50.40
5576;DHT22;2810;50.134;8.626;2023-04-19T12:57:13;19.00;50.20
5576;DHT22;2810;50.134;8.626;2023-04-19T12:59:38;18.90;51.50
5576;DHT22;2810;50.134;8.626;2023-04-19T13:02:05;18.70;50.30
5576;DHT22;2810;50.134;8.626;2023-04-19T13:04:31;18.80;51.30
5576;DHT22;2810;50.134;8.626;2023-04-19T13:06:56;18.90;52.20
5576;DHT22;2810;50.134;8.626;2023-04-19T13:09:22;18.80;51.20
5576;DHT22;2810;50.134;8.626;2023-04-19T13:11:47;18.60;51.00
5576;DHT22;2810;50.134;8.626;2023-04-19T13:14:12;18.20;52.20
5576;DHT22;2810;50.134;8.626;2023-04-19T13:16:38;18.30;51.40
5576;DHT22;2810;50.134;8.626;2023-04-19T13:19:04;18.20;49.30
5576;DHT22;2810;50.134;8.626;2023-04-19T13:21:29;18.40;51.00
5576;DHT22;2810;50.134;8.626;2023-04-19T13:23:56;18.10;50.80
5576;DHT22;2810;50.134;8.626;2023-04-19T13:26:22;18.20;51.00
5576;DHT22;2810;50.134;8.626;2023-04-19T13:28:48;18.30;51.30
5576;DHT22;2810;50.134;8.626;2023-04-19T13:31:13;18.50;51.00
5576;DHT22;2810;50.134;8.626;2023-04-19T13:33:39;18.50;50.40
5576;DHT22;2810;50.134;8.626;2023-04-19T13:36:04;18.80;50.90
5576;DHT22;2810;50.134;8.626;2023-04-19T13:38:30;18.40;47.20
5576;DHT22;2810;50.134;8.626;2023-04-19T13:40:55;18.40;48.00
5576;DHT22;2810;50.134;8.626;2023-04-19T13:43:21;18.30;47.80
5576;DHT22;2810;50.134;8.626;2023-04-19T13:45:46;18.00;43.30
5576;DHT22;2810;50.134;8.626;2023-04-19T13:48:12;18.10;45.30
5576;DHT22;2810;50.134;8.626;2023-04-19T13:50:37;18.10;42.30
5576;DHT22;2810;50.134;8.626;2023-04-19T13:53:03;17.90;40.00
5576;DHT22;2810;50.134;8.626;2023-04-19T13:55:28;17.60;40.90
5576;DHT22;2810;50.134;8.626;2023-04-19T13:57:54;17.50;41.80
5576;DHT22;2810;50.134;8.626;2023-04-19T14:00:20;17.40;43.60
5576;DHT22;2810;50.134;8.626;2023-04-19T14:02:45;17.30;43.10
5576;DHT22;2810;50.134;8.626;2023-04-19T14:05:11;17.50;44.50
5576;DHT22;2810;50.134;8.626;2023-04-19T14:07:38;17.50;46.30
5576;DHT22;2810;50.134;8.626;2023-04-19T14:10:03;17.60;46.90
5576;DHT22;2810;50.134;8.626;2023-04-19T14:12:29;17.40;45.90
5576;DHT22;2810;50.134;8.626;2023-04-19T14:14:54;17.40;47.10
5576;DHT22;2810;50.134;8.626;2023-04-19T14:17:20;17.50;47.20
5576;DHT22;2810;50.134;8.626;2023-04-19T14:19:45;17.50;47.10
5576;DHT22;2810;50.134;8.626;2023-04-19T14:22:11;17.60;48.60
5576;DHT22;2810;50.134;8.626;2023-04-19T14:24:36;17.60;47.30
5576;DHT22;2810;50.134;8.626;2023-04-19T14:27:02;17.60;47.70
5576;DHT22;2810;50.134;8.626;2023-04-19T14:29:27;17.60;47.50
5576;DHT22;2810;50.134;8.626;2023-04-19T14:31:52;17.50;46.40
5576;DHT22;2810;50.134;8.626;2023-04-19T14:34:18;17.30;46.90
5576;DHT22;2810;50.134;8.626;2023-04-19T14:36:43;17.50;46.00
5576;DHT22;2810;50.134;8.626;2023-04-19T14:39:09;17.20;46.20
5576;DHT22;2810;50.134;8.626;2023-04-19T14:41:34;17.10;46.60
5576;DHT22;2810;50.134;8.626;2023-04-19T14:44:00;17.00;47.00
5576;DHT22;2810;50.134;8.626;2023-04-19T14:46:25;17.20;47.20
5576;DHT22;2810;50.134;8.626;2023-04-19T14:48:51;17.70;48.00
5576;DHT22;2810;50.134;8.626;2023-04-19T14:51:16;17.40;46.40
5576;DHT22;2810;50.134;8.626;2023-04-19T14:53:41;17.70;47.30
5576;DHT22;2810;50.134;8.626;2023-04-19T14:56:07;17.30;47.60
5576;DHT22;2810;50.134;8.626;2023-04-19T14:58:32;17.20;47.10
5576;DHT22;2810;50.134;8.626;2023-04-19T15:00:58;16.60;47.70
5576;DHT22;2810;50.134;8.626;2023-04-19T15:03:23;16.30;47.50
5576;DHT22;2810;50.134;8.626;2023-04-19T15:05:49;16.40;49.10
5576;DHT22;2810;50.134;8.626;2023-04-19T15:08:15;16.00;48.60
5576;DHT22;2810;50.134;8.626;2023-04-19T15:10:40;16.00;48.70
5576;DHT22;2810;50.134;8.626;2023-04-19T15:13:06;16.20;50.60
5576;DHT22;2810;50.134;8.626;2023-04-19T15:15:31;16.30;49.00
5576;DHT22;2810;50.134;8.626;2023-04-19T15:17:57;16.00;48.60
5576;DHT22;2810;50.134;8.626;2023-04-19T15:20:22;15.90;47.60
5576;DHT22;2810;50.134;8.626;2023-04-19T15:22:48;15.80;48.60
5576;DHT22;2810;50.134;8.626;2023-04-19T15:25:13;16.10;50.70
5576;DHT22;2810;50.134;8.626;2023-04-19T15:27:38;15.80;50.10
5576;DHT22;2810;50.134;8.626;2023-04-19T15:30:04;15.90;49.50
5576;DHT22;2810;50.134;8.626;2023-04-19T15:32:30;15.90;49.90
5576;DHT22;2810;50.134;8.626;2023-04-19T15:34:58;15.80;50.80
5576;DHT22;2810;50.134;8.626;2023-04-19T15:37:24;15.60;50.90
5576;DHT22;2810;50.134;8.626;2023-04-19T15:39:49;15.30;49.90
5576;DHT22;2810;50.134;8.626;2023-04-19T15:42:15;15.00;50.40
5576;DHT22;2810;50.134;8.626;2023-04-19T15:44:41;14.80;51.40
5576;DHT22;2810;50.134;8.626;2023-04-19T15:47:06;14.70;51.60
5576;DHT22;2810;50.134;8.626;2023-04-19T15:49:31;14.80;52.50
5576;DHT22;2810;50.134;8.626;2023-04-19T15:51:57;14.90;54.20
5576;DHT22;2810;50.134;8.626;2023-04-19T15:54:22;14.90;51.00
5576;DHT22;2810;50.134;8.626;2023-04-19T15:56:48;15.00;52.70
5576;DHT22;2810;50.134;8.626;2023-04-19T15:59:13;15.40;53.10
5576;DHT22;2810;50.134;8.626;2023-04-19T16:01:39;14.80;52.50
5576;DHT22;2810;50.134;8.626;2023-04-19T16:04:04;14.60;53.80
5576;DHT22;2810;50.134;8.626;2023-04-19T16:06:30;14.50;54.00
5576;DHT22;2810;50.134;8.626;2023-04-19T16:08:56;14.40;54.60